sensor_id;sensor_type;location;lat;lon;timestamp;P1;durP1;ratioP1;P2;durP2;ratioP2
10651;SDS011;5374;42.742;23.266;2023-12-07T00:02:38;19.00;;;14.23;;
10651;SDS011;5374;42.742;23.266;2023-12-07T00:05:25;22.40;;;15.70;;
10651;SDS011;5374;42.742;23.266;2023-12-07T00:08:13;20.90;;;15.07;;
10651;SDS011;5374;42.742;23.266;2023-12-07T00:11:00;24.03;;;14.80;;
10651;SDS011;5374;42.742;23.266;2023-12-07T00:13:48;22.53;;;16.50;;
10651;SDS011;5374;42.742;23.266;2023-12-07T00:16:36;25.27;;;17.70;;
10651;SDS011;5374;42.742;23.266;2023-12-07T00:19:23;28.90;;;19.57;;
10651;SDS011;5374;42.742;23.266;2023-12-07T00:22:11;23.33;;;16.73;;
10651;SDS011;5374;42.742;23.266;2023-12-07T00:24:59;19.00;;;14.97;;
10651;SDS011;5374;42.742;23.266;2023-12-07T00:27:46;19.67;;;14.37;;
10651;SDS011;5374;42.742;23.266;2023-12-07T00:30:36;17.47;;;13.77;;
10651;SDS011;5374;42.742;23.266;2023-12-07T00:33:23;17.83;;;13.13;;
10651;SDS011;5374;42.742;23.266;2023-12-07T00:36:10;18.60;;;13.63;;
10651;SDS011;5374;42.742;23.266;2023-12-07T00:38:58;20.83;;;14.30;;
10651;SDS011;5374;42.742;23.266;2023-12-07T00:41:47;17.37;;;13.00;;
10651;SDS011;5374;42.742;23.266;2023-12-07T00:44:38;19.97;;;14.17;;
10651;SDS011;5374;42.742;23.266;2023-12-07T00:47:27;28.80;;;19.13;;
10651;SDS011;5374;42.742;23.266;2023-12-07T00:50:14;32.17;;;20.13;;
10651;SDS011;5374;42.742;23.266;2023-12-07T00:53:01;27.87;;;17.83;;
10651;SDS011;5374;42.742;23.266;2023-12-07T00:55:49;21.50;;;15.90;;
10651;SDS011;5374;42.742;23.266;2023-12-07T00:58:36;19.50;;;14.23;;
10651;SDS011;5374;42.742;23.266;2023-12-07T01:01:24;19.47;;;14.50;;
10651;SDS011;5374;42.742;23.266;2023-12-07T01:04:12;19.23;;;14.30;;
10651;SDS011;5374;42.742;23.266;2023-12-07T01:06:59;18.07;;;14.20;;
10651;SDS011;5374;42.742;23.266;2023-12-07T01:09:46;19.97;;;14.30;;
10651;SDS011;5374;42.742;23.266;2023-12-07T01:12:34;19.50;;;15.87;;
10651;SDS011;5374;42.742;23.266;2023-12-07T01:15:22;27.00;;;19.90;;
10651;SDS011;5374;42.742;23.266;2023-12-07T01:18:09;33.80;;;24.03;;
10651;SDS011;5374;42.742;23.266;2023-12-07T01:20:58;34.00;;;22.57;;
10651;SDS011;5374;42.742;23.266;2023-12-07T01:23:45;27.67;;;19.47;;
10651;SDS011;5374;42.742;23.266;2023-12-07T01:26:32;22.83;;;17.00;;
10651;SDS011;5374;42.742;23.266;2023-12-07T01:29:21;22.00;;;16.50;;
10651;SDS011;5374;42.742;23.266;2023-12-07T01:32:08;22.17;;;16.87;;
10651;SDS011;5374;42.742;23.266;2023-12-07T01:34:55;22.33;;;15.17;;
10651;SDS011;5374;42.742;23.266;2023-12-07T01:37:44;21.37;;;16.17;;
10651;SDS011;5374;42.742;23.266;2023-12-07T01:40:31;23.13;;;16.67;;
10651;SDS011;5374;42.742;23.266;2023-12-07T01:43:18;21.57;;;15.67;;
10651;SDS011;5374;42.742;23.266;2023-12-07T01:46:06;20.93;;;14.73;;
10651;SDS011;5374;42.742;23.266;2023-12-07T01:48:54;19.67;;;14.23;;
10651;SDS011;5374;42.742;23.266;2023-12-07T01:51:41;20.50;;;13.80;;
10651;SDS011;5374;42.742;23.266;2023-12-07T01:54:30;20.63;;;14.40;;
10651;SDS011;5374;42.742;23.266;2023-12-07T01:57:18;18.23;;;13.80;;
10651;SDS011;5374;42.742;23.266;2023-12-07T02:00:07;21.60;;;15.87;;
10651;SDS011;5374;42.742;23.266;2023-12-07T02:02:56;20.03;;;15.10;;
10651;SDS011;5374;42.742;23.266;2023-12-07T02:05:43;22.20;;;15.87;;
10651;SDS011;5374;42.742;23.266;2023-12-07T02:08:34;20.03;;;15.57;;
10651;SDS011;5374;42.742;23.266;2023-12-07T02:11:22;22.50;;;15.87;;
10651;SDS011;5374;42.742;23.266;2023-12-07T02:14:10;21.03;;;14.93;;
10651;SDS011;5374;42.742;23.266;2023-12-07T02:17:01;18.83;;;14.00;;
10651;SDS011;5374;42.742;23.266;2023-12-07T02:19:56;18.93;;;13.90;;
10651;SDS011;5374;42.742;23.266;2023-12-07T02:23:00;18.60;;;13.60;;
10651;SDS011;5374;42.742;23.266;2023-12-07T02:29:32;17.17;;;13.43;;
10651;SDS011;5374;42.742;23.266;2023-12-07T02:32:19;17.10;;;13.13;;
10651;SDS011;5374;42.742;23.266;2023-12-07T02:35:07;17.43;;;12.73;;
10651;SDS011;5374;42.742;23.266;2023-12-07T02:37:57;17.83;;;13.50;;
10651;SDS011;5374;42.742;23.266;2023-12-07T02:40:45;18.53;;;13.50;;
10651;SDS011;5374;42.742;23.266;2023-12-07T02:43:34;21.57;;;15.27;;
10651;SDS011;5374;42.742;23.266;2023-12-07T02:46:22;23.20;;;16.57;;
10651;SDS011;5374;42.742;23.266;2023-12-07T02:49:09;23.73;;;17.13;;
10651;SDS011;5374;42.742;23.266;2023-12-07T02:51:57;21.27;;;15.13;;
10651;SDS011;5374;42.742;23.266;2023-12-07T02:54:44;23.10;;;16.47;;
10651;SDS011;5374;42.742;23.266;2023-12-07T02:57:31;23.27;;;17.20;;
10651;SDS011;5374;42.742;23.266;2023-12-07T03:00:19;22.70;;;16.30;;
10651;SDS011;5374;42.742;23.266;2023-12-07T03:03:09;20.27;;;14.57;;
10651;SDS011;5374;42.742;23.266;2023-12-07T03:05:56;19.30;;;14.30;;
10651;SDS011;5374;42.742;23.266;2023-12-07T03:08:43;18.27;;;13.83;;
10651;SDS011;5374;42.742;23.266;2023-12-07T03:11:30;19.43;;;14.40;;
10651;SDS011;5374;42.742;23.266;2023-12-07T03:14:19;18.40;;;13.93;;
10651;SDS011;5374;42.742;23.266;2023-12-07T03:17:07;19.27;;;13.50;;
10651;SDS011;5374;42.742;23.266;2023-12-07T03:19:56;19.17;;;13.90;;
10651;SDS011;5374;42.742;23.266;2023-12-07T03:22:43;20.53;;;14.77;;
10651;SDS011;5374;42.742;23.266;2023-12-07T03:25:30;19.53;;;14.43;;
10651;SDS011;5374;42.742;23.266;2023-12-07T03:28:17;22.33;;;15.47;;
10651;SDS011;5374;42.742;23.266;2023-12-07T03:31:04;20.07;;;15.43;;
10651;SDS011;5374;42.742;23.266;2023-12-07T03:33:52;19.27;;;14.97;;
10651;SDS011;5374;42.742;23.266;2023-12-07T03:36:42;22.33;;;15.50;;
10651;SDS011;5374;42.742;23.266;2023-12-07T03:39:29;21.20;;;15.83;;
10651;SDS011;5374;42.742;23.266;2023-12-07T03:42:18;21.80;;;15.23;;
10651;SDS011;5374;42.742;23.266;2023-12-07T03:45:05;20.50;;;15.73;;
10651;SDS011;5374;42.742;23.266;2023-12-07T03:47:54;22.53;;;16.00;;
10651;SDS011;5374;42.742;23.266;2023-12-07T03:50:41;20.37;;;15.60;;
10651;SDS011;5374;42.742;23.266;2023-12-07T03:53:31;20.33;;;15.30;;
10651;SDS011;5374;42.742;23.266;2023-12-07T03:56:24;21.50;;;15.83;;
10651;SDS011;5374;42.742;23.266;2023-12-07T03:59:12;21.00;;;15.97;;
10651;SDS011;5374;42.742;23.266;2023-12-07T04:02:00;21.47;;;15.53;;
10651;SDS011;5374;42.742;23.266;2023-12-07T04:04:48;20.67;;;15.57;;
10651;SDS011;5374;42.742;23.266;2023-12-07T04:07:36;19.57;;;15.13;;
10651;SDS011;5374;42.742;23.266;2023-12-07T04:10:24;20.53;;;15.00;;
10651;SDS011;5374;42.742;23.266;2023-12-07T04:13:11;20.00;;;15.20;;
10651;SDS011;5374;42.742;23.266;2023-12-07T04:15:58;19.53;;;15.73;;
10651;SDS011;5374;42.742;23.266;2023-12-07T04:18:46;21.40;;;15.63;;
10651;SDS011;5374;42.742;23.266;2023-12-07T04:21:33;21.63;;;16.47;;
10651;SDS011;5374;42.742;23.266;2023-12-07T04:24:20;23.10;;;16.40;;
10651;SDS011;5374;42.742;23.266;2023-12-07T04:27:10;24.57;;;18.37;;
10651;SDS011;5374;42.742;23.266;2023-12-07T04:29:58;23.07;;;16.47;;
10651;SDS011;5374;42.742;23.266;2023-12-07T04:32:45;23.47;;;17.73;;
10651;SDS011;5374;42.742;23.266;2023-12-07T04:35:33;25.77;;;19.60;;
10651;SDS011;5374;42.742;23.266;2023-12-07T04:38:21;24.90;;;20.43;;
10651;SDS011;5374;42.742;23.266;2023-12-07T04:41:08;25.07;;;19.63;;
10651;SDS011;5374;42.742;23.266;2023-12-07T04:43:56;22.93;;;19.73;;
10651;SDS011;5374;42.742;23.266;2023-12-07T04:46:43;25.77;;;20.57;;
10651;SDS011;5374;42.742;23.266;2023-12-07T04:49:31;24.37;;;19.63;;
10651;SDS011;5374;42.742;23.266;2023-12-07T04:52:18;25.43;;;19.73;;
10651;SDS011;5374;42.742;23.266;2023-12-07T04:55:06;26.93;;;20.30;;
10651;SDS011;5374;42.742;23.266;2023-12-07T04:57:54;29.63;;;23.00;;
10651;SDS011;5374;42.742;23.266;2023-12-07T05:00:42;32.43;;;23.43;;
10651;SDS011;5374;42.742;23.266;2023-12-07T05:03:29;32.70;;;22.90;;
10651;SDS011;5374;42.742;23.266;2023-12-07T05:06:16;34.13;;;23.77;;
10651;SDS011;5374;42.742;23.266;2023-12-07T05:09:04;29.90;;;23.43;;
10651;SDS011;5374;42.742;23.266;2023-12-07T05:11:54;33.17;;;23.83;;
10651;SDS011;5374;42.742;23.266;2023-12-07T05:14:41;31.87;;;23.23;;
10651;SDS011;5374;42.742;23.266;2023-12-07T05:17:30;34.63;;;24.80;;
10651;SDS011;5374;42.742;23.266;2023-12-07T05:20:17;30.40;;;22.70;;
10651;SDS011;5374;42.742;23.266;2023-12-07T05:23:08;32.73;;;22.60;;
10651;SDS011;5374;42.742;23.266;2023-12-07T05:25:55;28.00;;;21.03;;
10651;SDS011;5374;42.742;23.266;2023-12-07T05:28:42;31.73;;;22.03;;
10651;SDS011;5374;42.742;23.266;2023-12-07T05:31:29;28.03;;;21.97;;
10651;SDS011;5374;42.742;23.266;2023-12-07T05:34:18;29.53;;;22.93;;
10651;SDS011;5374;42.742;23.266;2023-12-07T05:37:05;32.10;;;23.53;;
10651;SDS011;5374;42.742;23.266;2023-12-07T05:39:52;33.13;;;25.43;;
10651;SDS011;5374;42.742;23.266;2023-12-07T05:42:39;40.03;;;32.47;;
10651;SDS011;5374;42.742;23.266;2023-12-07T05:45:27;44.97;;;33.70;;
10651;SDS011;5374;42.742;23.266;2023-12-07T05:48:15;47.00;;;34.90;;
10651;SDS011;5374;42.742;23.266;2023-12-07T05:51:04;84.17;;;53.10;;
10651;SDS011;5374;42.742;23.266;2023-12-07T05:53:52;195.93;;;110.90;;
10651;SDS011;5374;42.742;23.266;2023-12-07T05:56:39;246.93;;;139.07;;
10651;SDS011;5374;42.742;23.266;2023-12-07T05:59:26;211.00;;;120.27;;
10651;SDS011;5374;42.742;23.266;2023-12-07T06:02:13;189.93;;;99.53;;
10651;SDS011;5374;42.742;23.266;2023-12-07T06:05:00;133.97;;;74.60;;
10651;SDS011;5374;42.742;23.266;2023-12-07T06:07:50;111.40;;;65.33;;
10651;SDS011;5374;42.742;23.266;2023-12-07T06:10:39;67.77;;;44.50;;
10651;SDS011;5374;42.742;23.266;2023-12-07T06:13:26;47.63;;;34.47;;
10651;SDS011;5374;42.742;23.266;2023-12-07T06:16:13;45.57;;;36.93;;
10651;SDS011;5374;42.742;23.266;2023-12-07T06:19:03;44.73;;;37.00;;
10651;SDS011;5374;42.742;23.266;2023-12-07T06:21:51;50.60;;;42.00;;
10651;SDS011;5374;42.742;23.266;2023-12-07T06:24:39;46.00;;;38.80;;
10651;SDS011;5374;42.742;23.266;2023-12-07T06:27:26;32.60;;;24.87;;
10651;SDS011;5374;42.742;23.266;2023-12-07T06:30:13;28.00;;;23.17;;
10651;SDS011;5374;42.742;23.266;2023-12-07T06:33:00;28.07;;;21.13;;
10651;SDS011;5374;42.742;23.266;2023-12-07T06:35:47;33.37;;;23.20;;
10651;SDS011;5374;42.742;23.266;2023-12-07T06:38:34;39.07;;;29.40;;
10651;SDS011;5374;42.742;23.266;2023-12-07T06:41:23;36.40;;;27.83;;
10651;SDS011;5374;42.742;23.266;2023-12-07T06:44:10;36.23;;;28.77;;
10651;SDS011;5374;42.742;23.266;2023-12-07T06:46:57;27.87;;;22.03;;
10651;SDS011;5374;42.742;23.266;2023-12-07T06:49:44;36.33;;;27.73;;
10651;SDS011;5374;42.742;23.266;2023-12-07T06:52:32;38.20;;;26.43;;
10651;SDS011;5374;42.742;23.266;2023-12-07T06:55:19;40.07;;;28.47;;
10651;SDS011;5374;42.742;23.266;2023-12-07T06:58:10;34.27;;;25.20;;
10651;SDS011;5374;42.742;23.266;2023-12-07T07:00:57;36.67;;;25.80;;
10651;SDS011;5374;42.742;23.266;2023-12-07T07:03:45;36.17;;;23.50;;
10651;SDS011;5374;42.742;23.266;2023-12-07T07:06:32;26.63;;;19.83;;
10651;SDS011;5374;42.742;23.266;2023-12-07T07:09:19;32.20;;;22.93;;
10651;SDS011;5374;42.742;23.266;2023-12-07T07:12:06;28.77;;;21.37;;
10651;SDS011;5374;42.742;23.266;2023-12-07T07:14:55;32.67;;;25.67;;
10651;SDS011;5374;42.742;23.266;2023-12-07T07:17:42;30.93;;;24.17;;
10651;SDS011;5374;42.742;23.266;2023-12-07T07:20:29;20.67;;;16.13;;
10651;SDS011;5374;42.742;23.266;2023-12-07T07:23:16;18.77;;;14.23;;
10651;SDS011;5374;42.742;23.266;2023-12-07T07:26:03;17.03;;;13.00;;
10651;SDS011;5374;42.742;23.266;2023-12-07T07:28:51;15.90;;;11.23;;
10651;SDS011;5374;42.742;23.266;2023-12-07T07:31:40;11.83;;;8.77;;
10651;SDS011;5374;42.742;23.266;2023-12-07T07:34:27;12.30;;;9.33;;
10651;SDS011;5374;42.742;23.266;2023-12-07T07:37:14;10.83;;;8.47;;
10651;SDS011;5374;42.742;23.266;2023-12-07T07:40:01;7.97;;;7.13;;
10651;SDS011;5374;42.742;23.266;2023-12-07T07:42:53;9.33;;;7.50;;
10651;SDS011;5374;42.742;23.266;2023-12-07T07:45:40;7.97;;;6.40;;
10651;SDS011;5374;42.742;23.266;2023-12-07T07:48:29;8.00;;;6.13;;
10651;SDS011;5374;42.742;23.266;2023-12-07T07:51:16;8.30;;;6.07;;
10651;SDS011;5374;42.742;23.266;2023-12-07T07:54:04;8.97;;;7.80;;
10651;SDS011;5374;42.742;23.266;2023-12-07T07:56:51;8.47;;;6.83;;
10651;SDS011;5374;42.742;23.266;2023-12-07T07:59:38;7.20;;;5.67;;
10651;SDS011;5374;42.742;23.266;2023-12-07T08:02:25;6.17;;;5.07;;
10651;SDS011;5374;42.742;23.266;2023-12-07T08:05:14;5.97;;;5.03;;
10651;SDS011;5374;42.742;23.266;2023-12-07T08:08:01;6.67;;;5.83;;
10651;SDS011;5374;42.742;23.266;2023-12-07T08:10:48;7.20;;;4.97;;
10651;SDS011;5374;42.742;23.266;2023-12-07T08:13:36;4.97;;;4.10;;
10651;SDS011;5374;42.742;23.266;2023-12-07T08:16:25;6.00;;;5.10;;
10651;SDS011;5374;42.742;23.266;2023-12-07T08:19:13;5.60;;;5.00;;
10651;SDS011;5374;42.742;23.266;2023-12-07T08:22:01;5.07;;;4.43;;
10651;SDS011;5374;42.742;23.266;2023-12-07T08:24:49;6.43;;;5.30;;
10651;SDS011;5374;42.742;23.266;2023-12-07T08:27:36;6.37;;;5.03;;
10651;SDS011;5374;42.742;23.266;2023-12-07T08:30:24;6.60;;;5.23;;
10651;SDS011;5374;42.742;23.266;2023-12-07T08:33:11;7.90;;;4.80;;
10651;SDS011;5374;42.742;23.266;2023-12-07T08:35:58;5.30;;;4.00;;
10651;SDS011;5374;42.742;23.266;2023-12-07T08:38:46;5.53;;;4.57;;
10651;SDS011;5374;42.742;23.266;2023-12-07T08:41:33;4.73;;;3.90;;
10651;SDS011;5374;42.742;23.266;2023-12-07T08:44:20;4.70;;;4.20;;
10651;SDS011;5374;42.742;23.266;2023-12-07T08:47:08;4.50;;;4.00;;
10651;SDS011;5374;42.742;23.266;2023-12-07T08:49:55;5.50;;;4.10;;
10651;SDS011;5374;42.742;23.266;2023-12-07T08:52:42;4.90;;;3.40;;
10651;SDS011;5374;42.742;23.266;2023-12-07T08:55:31;5.17;;;3.80;;
10651;SDS011;5374;42.742;23.266;2023-12-07T08:58:18;4.10;;;3.70;;
10651;SDS011;5374;42.742;23.266;2023-12-07T09:01:06;14.47;;;6.80;;
10651;SDS011;5374;42.742;23.266;2023-12-07T09:03:53;6.13;;;3.80;;
10651;SDS011;5374;42.742;23.266;2023-12-07T09:06:40;4.90;;;3.67;;
10651;SDS011;5374;42.742;23.266;2023-12-07T09:09:28;5.57;;;3.90;;
10651;SDS011;5374;42.742;23.266;2023-12-07T09:12:17;3.77;;;3.20;;
10651;SDS011;5374;42.742;23.266;2023-12-07T09:15:04;5.37;;;4.10;;
10651;SDS011;5374;42.742;23.266;2023-12-07T09:17:55;3.73;;;3.10;;
10651;SDS011;5374;42.742;23.266;2023-12-07T09:20:42;3.20;;;2.90;;
10651;SDS011;5374;42.742;23.266;2023-12-07T09:23:31;4.17;;;2.97;;
10651;SDS011;5374;42.742;23.266;2023-12-07T09:26:18;3.20;;;2.70;;
10651;SDS011;5374;42.742;23.266;2023-12-07T09:29:06;3.00;;;2.57;;
10651;SDS011;5374;42.742;23.266;2023-12-07T09:31:54;2.50;;;2.20;;
10651;SDS011;5374;42.742;23.266;2023-12-07T09:34:41;3.70;;;2.80;;
10651;SDS011;5374;42.742;23.266;2023-12-07T09:37:28;3.37;;;2.50;;
10651;SDS011;5374;42.742;23.266;2023-12-07T09:40:16;2.50;;;2.30;;
10651;SDS011;5374;42.742;23.266;2023-12-07T09:43:05;7.00;;;6.30;;
10651;SDS011;5374;42.742;23.266;2023-12-07T09:45:54;7.37;;;5.90;;
10651;SDS011;5374;42.742;23.266;2023-12-07T09:48:42;6.17;;;5.50;;
10651;SDS011;5374;42.742;23.266;2023-12-07T09:51:30;5.90;;;4.63;;
10651;SDS011;5374;42.742;23.266;2023-12-07T09:54:19;2.57;;;2.23;;
10651;SDS011;5374;42.742;23.266;2023-12-07T09:57:08;3.80;;;2.70;;
10651;SDS011;5374;42.742;23.266;2023-12-07T09:59:55;4.43;;;2.40;;
10651;SDS011;5374;42.742;23.266;2023-12-07T10:02:44;2.53;;;1.80;;
10651;SDS011;5374;42.742;23.266;2023-12-07T10:05:33;2.40;;;1.80;;
10651;SDS011;5374;42.742;23.266;2023-12-07T10:08:25;2.50;;;2.00;;
10651;SDS011;5374;42.742;23.266;2023-12-07T10:11:15;3.03;;;2.20;;
10651;SDS011;5374;42.742;23.266;2023-12-07T10:14:04;2.67;;;1.87;;
10651;SDS011;5374;42.742;23.266;2023-12-07T10:16:54;3.00;;;1.93;;
10651;SDS011;5374;42.742;23.266;2023-12-07T10:19:47;3.93;;;2.27;;
10651;SDS011;5374;42.742;23.266;2023-12-07T10:23:01;6.93;;;3.17;;
10651;SDS011;5374;42.742;23.266;2023-12-07T10:25:49;3.63;;;3.03;;
10651;SDS011;5374;42.742;23.266;2023-12-07T10:28:36;6.77;;;4.57;;
10651;SDS011;5374;42.742;23.266;2023-12-07T10:31:24;5.47;;;4.87;;
10651;SDS011;5374;42.742;23.266;2023-12-07T10:34:12;9.07;;;7.40;;
10651;SDS011;5374;42.742;23.266;2023-12-07T10:37:06;6.47;;;5.03;;
10651;SDS011;5374;42.742;23.266;2023-12-07T10:39:53;6.07;;;5.27;;
10651;SDS011;5374;42.742;23.266;2023-12-07T10:42:41;4.43;;;4.00;;
10651;SDS011;5374;42.742;23.266;2023-12-07T10:45:35;5.13;;;4.40;;
10651;SDS011;5374;42.742;23.266;2023-12-07T10:48:24;3.73;;;3.30;;
10651;SDS011;5374;42.742;23.266;2023-12-07T10:51:13;5.33;;;4.83;;
10651;SDS011;5374;42.742;23.266;2023-12-07T10:54:09;4.90;;;4.40;;
10651;SDS011;5374;42.742;23.266;2023-12-07T10:57:02;4.30;;;3.90;;
10651;SDS011;5374;42.742;23.266;2023-12-07T11:00:04;7.47;;;5.30;;
10651;SDS011;5374;42.742;23.266;2023-12-07T11:02:55;5.87;;;5.27;;
10651;SDS011;5374;42.742;23.266;2023-12-07T11:05:44;6.13;;;4.43;;
10651;SDS011;5374;42.742;23.266;2023-12-07T11:08:34;8.07;;;5.53;;
10651;SDS011;5374;42.742;23.266;2023-12-07T11:11:29;8.80;;;5.57;;
10651;SDS011;5374;42.742;23.266;2023-12-07T11:14:20;7.97;;;6.50;;
10651;SDS011;5374;42.742;23.266;2023-12-07T11:17:08;4.97;;;4.47;;
10651;SDS011;5374;42.742;23.266;2023-12-07T11:19:56;5.20;;;4.43;;
10651;SDS011;5374;42.742;23.266;2023-12-07T11:22:44;5.60;;;4.70;;
10651;SDS011;5374;42.742;23.266;2023-12-07T11:25:32;6.10;;;5.20;;
10651;SDS011;5374;42.742;23.266;2023-12-07T11:28:21;6.37;;;5.00;;
10651;SDS011;5374;42.742;23.266;2023-12-07T11:31:21;4.47;;;4.00;;
10651;SDS011;5374;42.742;23.266;2023-12-07T11:34:08;2.93;;;2.63;;
10651;SDS011;5374;42.742;23.266;2023-12-07T11:36:59;3.43;;;2.20;;
10651;SDS011;5374;42.742;23.266;2023-12-07T11:39:46;3.97;;;2.53;;
10651;SDS011;5374;42.742;23.266;2023-12-07T11:42:35;4.80;;;4.27;;
10651;SDS011;5374;42.742;23.266;2023-12-07T11:48:26;5.10;;;4.27;;
10651;SDS011;5374;42.742;23.266;2023-12-07T11:51:15;4.87;;;4.37;;
10651;SDS011;5374;42.742;23.266;2023-12-07T11:54:02;4.00;;;3.60;;
10651;SDS011;5374;42.742;23.266;2023-12-07T11:56:51;6.23;;;4.93;;
10651;SDS011;5374;42.742;23.266;2023-12-07T11:59:39;5.47;;;4.53;;
10651;SDS011;5374;42.742;23.266;2023-12-07T12:02:30;4.97;;;3.63;;
10651;SDS011;5374;42.742;23.266;2023-12-07T12:05:21;4.13;;;3.20;;
10651;SDS011;5374;42.742;23.266;2023-12-07T12:08:09;6.83;;;5.03;;
10651;SDS011;5374;42.742;23.266;2023-12-07T12:10:56;5.90;;;4.30;;
10651;SDS011;5374;42.742;23.266;2023-12-07T12:13:44;6.10;;;5.50;;
10651;SDS011;5374;42.742;23.266;2023-12-07T12:16:32;6.83;;;4.70;;
10651;SDS011;5374;42.742;23.266;2023-12-07T12:19:21;4.63;;;3.23;;
10651;SDS011;5374;42.742;23.266;2023-12-07T12:22:09;3.90;;;3.20;;
10651;SDS011;5374;42.742;23.266;2023-12-07T12:24:56;2.90;;;2.60;;
10651;SDS011;5374;42.742;23.266;2023-12-07T12:27:43;3.77;;;2.70;;
10651;SDS011;5374;42.742;23.266;2023-12-07T12:30:32;3.87;;;3.17;;
10651;SDS011;5374;42.742;23.266;2023-12-07T12:33:20;4.00;;;3.20;;
10651;SDS011;5374;42.742;23.266;2023-12-07T12:36:08;3.57;;;2.30;;
10651;SDS011;5374;42.742;23.266;2023-12-07T12:38:56;4.90;;;2.63;;
10651;SDS011;5374;42.742;23.266;2023-12-07T12:41:43;4.33;;;3.00;;
10651;SDS011;5374;42.742;23.266;2023-12-07T12:44:31;4.87;;;3.57;;
10651;SDS011;5374;42.742;23.266;2023-12-07T12:47:18;4.77;;;3.23;;
10651;SDS011;5374;42.742;23.266;2023-12-07T12:50:06;4.57;;;3.50;;
10651;SDS011;5374;42.742;23.266;2023-12-07T12:52:57;11.50;;;6.50;;
10651;SDS011;5374;42.742;23.266;2023-12-07T12:55:45;8.77;;;5.67;;
10651;SDS011;5374;42.742;23.266;2023-12-07T12:58:34;5.80;;;5.20;;
10651;SDS011;5374;42.742;23.266;2023-12-07T13:01:22;4.83;;;3.70;;
10651;SDS011;5374;42.742;23.266;2023-12-07T13:04:09;4.20;;;3.43;;
10651;SDS011;5374;42.742;23.266;2023-12-07T13:06:56;5.00;;;4.27;;
10651;SDS011;5374;42.742;23.266;2023-12-07T13:09:45;7.53;;;5.27;;
10651;SDS011;5374;42.742;23.266;2023-12-07T13:12:32;6.90;;;4.37;;
10651;SDS011;5374;42.742;23.266;2023-12-07T13:15:20;7.60;;;6.37;;
10651;SDS011;5374;42.742;23.266;2023-12-07T13:18:08;7.50;;;5.40;;
10651;SDS011;5374;42.742;23.266;2023-12-07T13:20:55;4.93;;;4.43;;
10651;SDS011;5374;42.742;23.266;2023-12-07T13:23:42;8.73;;;5.93;;
10651;SDS011;5374;42.742;23.266;2023-12-07T13:26:33;10.30;;;5.70;;
10651;SDS011;5374;42.742;23.266;2023-12-07T13:29:21;6.50;;;4.80;;
10651;SDS011;5374;42.742;23.266;2023-12-07T13:32:08;11.53;;;8.63;;
10651;SDS011;5374;42.742;23.266;2023-12-07T13:34:57;9.63;;;6.60;;
10651;SDS011;5374;42.742;23.266;2023-12-07T13:37:44;5.70;;;4.63;;
10651;SDS011;5374;42.742;23.266;2023-12-07T13:40:33;6.80;;;5.30;;
10651;SDS011;5374;42.742;23.266;2023-12-07T13:43:24;10.50;;;5.73;;
10651;SDS011;5374;42.742;23.266;2023-12-07T13:46:11;6.00;;;5.40;;
10651;SDS011;5374;42.742;23.266;2023-12-07T13:48:58;8.97;;;6.57;;
10651;SDS011;5374;42.742;23.266;2023-12-07T13:51:45;6.20;;;5.37;;
10651;SDS011;5374;42.742;23.266;2023-12-07T13:54:33;14.07;;;11.27;;
10651;SDS011;5374;42.742;23.266;2023-12-07T13:57:21;10.13;;;8.33;;
10651;SDS011;5374;42.742;23.266;2023-12-07T14:00:13;10.03;;;5.80;;
10651;SDS011;5374;42.742;23.266;2023-12-07T14:03:01;8.63;;;5.73;;
10651;SDS011;5374;42.742;23.266;2023-12-07T14:05:49;6.40;;;5.47;;
10651;SDS011;5374;42.742;23.266;2023-12-07T14:08:36;15.73;;;9.67;;
10651;SDS011;5374;42.742;23.266;2023-12-07T14:11:23;17.37;;;9.83;;
10651;SDS011;5374;42.742;23.266;2023-12-07T14:14:11;12.10;;;8.17;;
10651;SDS011;5374;42.742;23.266;2023-12-07T14:17:03;10.53;;;8.07;;
10651;SDS011;5374;42.742;23.266;2023-12-07T14:19:50;9.87;;;7.80;;
10651;SDS011;5374;42.742;23.266;2023-12-07T14:22:39;9.97;;;8.67;;
10651;SDS011;5374;42.742;23.266;2023-12-07T14:25:26;8.97;;;7.47;;
10651;SDS011;5374;42.742;23.266;2023-12-07T14:28:14;10.37;;;8.37;;
10651;SDS011;5374;42.742;23.266;2023-12-07T14:31:02;9.40;;;7.13;;
10651;SDS011;5374;42.742;23.266;2023-12-07T14:34:00;9.27;;;7.50;;
10651;SDS011;5374;42.742;23.266;2023-12-07T14:36:50;8.53;;;7.37;;
10651;SDS011;5374;42.742;23.266;2023-12-07T14:39:38;10.10;;;7.40;;
10651;SDS011;5374;42.742;23.266;2023-12-07T14:42:26;16.73;;;10.97;;
10651;SDS011;5374;42.742;23.266;2023-12-07T14:45:13;18.10;;;11.40;;
10651;SDS011;5374;42.742;23.266;2023-12-07T14:48:01;22.30;;;15.27;;
10651;SDS011;5374;42.742;23.266;2023-12-07T14:50:52;25.63;;;19.83;;
10651;SDS011;5374;42.742;23.266;2023-12-07T14:53:43;19.97;;;15.60;;
10651;SDS011;5374;42.742;23.266;2023-12-07T14:56:32;17.67;;;14.53;;
10651;SDS011;5374;42.742;23.266;2023-12-07T14:59:30;21.20;;;15.73;;
10651;SDS011;5374;42.742;23.266;2023-12-07T15:02:22;13.63;;;12.20;;
10651;SDS011;5374;42.742;23.266;2023-12-07T15:05:12;19.97;;;14.13;;
10651;SDS011;5374;42.742;23.266;2023-12-07T15:08:00;50.37;;;30.33;;
10651;SDS011;5374;42.742;23.266;2023-12-07T15:10:49;33.80;;;22.30;;
10651;SDS011;5374;42.742;23.266;2023-12-07T15:13:38;38.63;;;27.80;;
10651;SDS011;5374;42.742;23.266;2023-12-07T15:16:25;24.50;;;18.20;;
10651;SDS011;5374;42.742;23.266;2023-12-07T15:19:13;18.90;;;13.13;;
10651;SDS011;5374;42.742;23.266;2023-12-07T15:22:00;22.47;;;15.70;;
10651;SDS011;5374;42.742;23.266;2023-12-07T15:24:49;20.37;;;14.50;;
10651;SDS011;5374;42.742;23.266;2023-12-07T15:27:36;31.50;;;19.93;;
10651;SDS011;5374;42.742;23.266;2023-12-07T15:30:23;37.23;;;25.50;;
10651;SDS011;5374;42.742;23.266;2023-12-07T15:33:14;11.93;;;9.27;;
10651;SDS011;5374;42.742;23.266;2023-12-07T15:36:03;13.70;;;10.87;;
10651;SDS011;5374;42.742;23.266;2023-12-07T15:38:51;12.57;;;7.90;;
10651;SDS011;5374;42.742;23.266;2023-12-07T15:41:40;14.13;;;8.43;;
10651;SDS011;5374;42.742;23.266;2023-12-07T15:44:28;10.70;;;7.73;;
10651;SDS011;5374;42.742;23.266;2023-12-07T15:47:16;12.30;;;7.83;;
10651;SDS011;5374;42.742;23.266;2023-12-07T15:50:03;27.57;;;13.80;;
10651;SDS011;5374;42.742;23.266;2023-12-07T15:52:52;30.30;;;16.70;;
10651;SDS011;5374;42.742;23.266;2023-12-07T15:55:39;15.73;;;10.17;;
10651;SDS011;5374;42.742;23.266;2023-12-07T15:58:28;15.57;;;10.33;;
10651;SDS011;5374;42.742;23.266;2023-12-07T16:01:15;42.40;;;23.67;;
10651;SDS011;5374;42.742;23.266;2023-12-07T16:04:03;17.13;;;12.50;;
10651;SDS011;5374;42.742;23.266;2023-12-07T16:06:50;12.73;;;9.73;;
10651;SDS011;5374;42.742;23.266;2023-12-07T16:09:37;19.53;;;12.97;;
10651;SDS011;5374;42.742;23.266;2023-12-07T16:12:27;21.40;;;13.03;;
10651;SDS011;5374;42.742;23.266;2023-12-07T16:15:16;14.80;;;9.73;;
10651;SDS011;5374;42.742;23.266;2023-12-07T16:18:03;14.50;;;9.83;;
10651;SDS011;5374;42.742;23.266;2023-12-07T16:20:50;14.93;;;8.87;;
10651;SDS011;5374;42.742;23.266;2023-12-07T16:23:38;11.30;;;8.10;;
10651;SDS011;5374;42.742;23.266;2023-12-07T16:26:25;9.70;;;7.83;;
10651;SDS011;5374;42.742;23.266;2023-12-07T16:29:14;14.43;;;11.53;;
10651;SDS011;5374;42.742;23.266;2023-12-07T16:35:51;12.87;;;8.00;;
10651;SDS011;5374;42.742;23.266;2023-12-07T16:38:39;11.40;;;8.33;;
10651;SDS011;5374;42.742;23.266;2023-12-07T16:41:27;12.90;;;9.77;;
10651;SDS011;5374;42.742;23.266;2023-12-07T16:44:16;16.30;;;10.87;;
10651;SDS011;5374;42.742;23.266;2023-12-07T16:47:04;15.17;;;10.13;;
10651;SDS011;5374;42.742;23.266;2023-12-07T16:49:52;19.17;;;12.83;;